Terminal Aerodrome Forecast
Issued by NWS Louisville, KY

Home | Current Version | Previous Version | Text Only | Print | Product List | Glossary On
Versions: 1 2 3 4 5 6 7 8 9 10 11 12 13 14 15 16 17 18 19 20 21 22 23 24 25 26
000
FTUS43 KLMK 020400 AAB
TAFSDF
TAF AMD
KSDF 020409Z 0204/0306 VRB06KT 4SM -TSRA BKN035CB
      TEMPO 0204/0207 2SM TSRA SCT015 BKN025CB
     FM020700 20004KT P6SM VCTS BKN040CB
     FM020900 21005KT 4SM SHRA VCTS BKN035CB
     FM021800 22007KT P6SM VCTS BKN040CB=

USA.gov is the U.S. government's official web portal to all federal, state and local government web resources and services.